Time;durP1;ratioP1;P1;durP2;ratioP2;P2;SDS_P1;SDS_P2;PMS_P1;PMS_P2;Temp;Humidity;BMP_temperature;BMP_pressure;BME280_temperature;BME280_humidity;BME280_pressure;Samples;Min_cycle;Max_cycle;Signal;HPM_P1;HPM_P2
2024/03/17 00:02:25;;;;;;;7.67;6.20;;;;;;;;;;5000013;28;20218;-84
2024/03/17 00:05:29;;;;;;;7.77;5.70;;;;;;;;;;5000597;28;20186;-83
2024/03/17 00:08:34;;;;;;;7.70;5.80;;;;;;;;;;4988471;28;20178;-82
2024/03/17 00:11:38;;;;;;;7.73;5.50;;;;;;;;;;4988637;28;20217;-83
2024/03/17 00:14:42;;;;;;;7.33;5.93;;;;;;;;;;4988297;28;20192;-83
2024/03/17 00:17:46;;;;;;;7.77;5.60;;;;;;;;;;4987564;28;20221;-82
2024/03/17 00:20:50;;;;;;;8.83;5.03;;;;;;;;;;4999420;28;20546;-84
2024/03/17 00:23:55;;;;;;;6.53;5.07;;;;;;;;;;4999285;28;20186;-84
2024/03/17 00:26:59;;;;;;;6.40;5.40;;;;;;;;;;4987486;28;20178;-82
2024/03/17 00:30:08;;;;;;;6.27;5.07;;;;;;;;;;4987507;28;20184;-82
2024/03/17 00:33:14;;;;;;;8.73;5.77;;;;;;;;;;4998282;28;20226;-85
2024/03/17 00:36:18;;;;;;;6.80;5.40;;;;;;;;;;4999625;28;20546;-81
2024/03/17 00:39:22;;;;;;;8.93;5.93;;;;;;;;;;4998626;28;20670;-84
2024/03/17 00:42:27;;;;;;;8.00;5.73;;;;;;;;;;4998999;28;20214;-84
2024/03/17 00:45:31;;;;;;;7.83;6.07;;;;;;;;;;4999118;28;20182;-82
2024/03/17 00:48:35;;;;;;;7.17;5.87;;;;;;;;;;4999295;28;20639;-85
2024/03/17 00:51:39;;;;;;;10.03;6.13;;;;;;;;;;4987368;28;20225;-84
2024/03/17 00:54:47;;;;;;;8.47;6.30;;;;;;;;;;4987238;28;20179;-84
2024/03/17 00:57:51;;;;;;;7.47;5.70;;;;;;;;;;4998739;28;20217;-84
2024/03/17 01:00:55;;;;;;;10.47;5.90;;;;;;;;;;4998907;28;20182;-84
2024/03/17 01:03:59;;;;;;;8.50;5.70;;;;;;;;;;4986749;28;20182;-85
2024/03/17 01:07:04;;;;;;;6.50;5.17;;;;;;;;;;4986835;28;20182;-84
2024/03/17 01:10:08;;;;;;;7.00;5.40;;;;;;;;;;4975761;28;20642;-84
2024/03/17 01:13:11;;;;;;;6.07;4.97;;;;;;;;;;4986593;28;20225;-83
2024/03/17 01:16:16;;;;;;;9.37;5.43;;;;;;;;;;4986854;28;20177;-85
2024/03/17 01:19:21;;;;;;;6.67;5.00;;;;;;;;;;4998409;28;20218;-85
2024/03/17 01:22:26;;;;;;;6.90;4.97;;;;;;;;;;4998931;28;20556;-83
2024/03/17 01:25:30;;;;;;;8.43;4.90;;;;;;;;;;4976852;28;20185;-84
2024/03/17 01:28:34;;;;;;;9.50;5.50;;;;;;;;;;4999115;28;20174;-82
2024/03/17 01:31:39;;;;;;;10.20;5.70;;;;;;;;;;5000033;28;20586;-84
2024/03/17 01:34:43;;;;;;;7.43;5.57;;;;;;;;;;4999341;28;20187;-82
2024/03/17 01:37:47;;;;;;;5.40;4.67;;;;;;;;;;4999097;28;20631;-84
2024/03/17 01:40:51;;;;;;;6.47;4.97;;;;;;;;;;4998675;28;20182;-84
2024/03/17 01:43:55;;;;;;;6.27;5.03;;;;;;;;;;4986745;28;20186;-84
2024/03/17 01:47:00;;;;;;;8.13;5.60;;;;;;;;;;4998145;28;20174;-84
2024/03/17 01:50:05;;;;;;;7.70;5.03;;;;;;;;;;4986702;28;20182;-83
2024/03/17 01:53:10;;;;;;;6.57;4.93;;;;;;;;;;4986488;28;20222;-83
2024/03/17 01:56:16;;;;;;;6.63;5.10;;;;;;;;;;4998770;28;20186;-83
2024/03/17 01:59:22;;;;;;;7.37;5.63;;;;;;;;;;4998606;28;20214;-84
2024/03/17 02:02:26;;;;;;;7.33;5.13;;;;;;;;;;4996821;28;20214;-83
2024/03/17 02:05:30;;;;;;;8.33;5.20;;;;;;;;;;4998563;28;20182;-84
2024/03/17 02:08:54;;;;;;;8.57;5.07;;;;;;;;;;4998428;28;20554;-84
2024/03/17 02:11:58;;;;;;;7.27;4.90;;;;;;;;;;4997885;28;20226;-83
2024/03/17 02:15:06;;;;;;;7.17;5.10;;;;;;;;;;4998209;28;20178;-84
2024/03/17 02:18:10;;;;;;;6.10;4.70;;;;;;;;;;4974342;28;20206;-83
2024/03/17 02:21:15;;;;;;;5.83;4.70;;;;;;;;;;4997721;28;20186;-83
2024/03/17 02:24:19;;;;;;;6.27;4.70;;;;;;;;;;4985790;28;20190;-83
2024/03/17 02:27:23;;;;;;;7.73;5.17;;;;;;;;;;4984968;28;20186;-83
2024/03/17 02:30:28;;;;;;;9.50;5.10;;;;;;;;;;4996975;28;20182;-83
2024/03/17 02:33:33;;;;;;;6.47;4.67;;;;;;;;;;4997325;28;20209;-84
2024/03/17 02:36:37;;;;;;;6.90;5.27;;;;;;;;;;4984918;28;20183;-83
2024/03/17 02:39:41;;;;;;;5.80;4.47;;;;;;;;;;4996808;28;20213;-83
2024/03/17 02:42:45;;;;;;;8.67;5.80;;;;;;;;;;4984678;28;20217;-83
2024/03/17 02:45:49;;;;;;;6.30;4.77;;;;;;;;;;4997638;28;20182;-83
2024/03/17 02:48:54;;;;;;;7.47;5.80;;;;;;;;;;4997217;28;20174;-83
2024/03/17 02:51:59;;;;;;;7.20;4.93;;;;;;;;;;4996421;28;20213;-83
2024/03/17 02:55:04;;;;;;;7.77;4.70;;;;;;;;;;4997496;28;20190;-83
2024/03/17 02:58:08;;;;;;;6.97;5.80;;;;;;;;;;4996016;28;20182;-84
2024/03/17 03:01:14;;;;;;;7.40;4.70;;;;;;;;;;4997091;28;20182;-83
2024/03/17 03:04:20;;;;;;;5.37;4.50;;;;;;;;;;4997099;28;20643;-83
2024/03/17 03:07:24;;;;;;;8.77;4.83;;;;;;;;;;4984990;28;20190;-83
2024/03/17 03:10:28;;;;;;;6.37;5.30;;;;;;;;;;4984989;28;20174;-83
2024/03/17 03:13:32;;;;;;;9.20;5.47;;;;;;;;;;4996705;28;20190;-83
2024/03/17 03:16:36;;;;;;;6.60;4.87;;;;;;;;;;4997675;28;20183;-83
2024/03/17 03:19:40;;;;;;;7.70;5.20;;;;;;;;;;4996153;28;20609;-83
2024/03/17 03:22:45;;;;;;;7.23;5.50;;;;;;;;;;4997366;28;20564;-84
2024/03/17 03:25:58;;;;;;;8.57;5.63;;;;;;;;;;4998972;28;20182;-84
2024/03/17 03:29:02;;;;;;;7.97;5.47;;;;;;;;;;4998894;28;20178;-84
2024/03/17 03:32:07;;;;;;;9.50;5.50;;;;;;;;;;4998528;28;20218;-84
2024/03/17 03:35:11;;;;;;;10.60;5.73;;;;;;;;;;4986099;28;20175;-84
2024/03/17 03:38:16;;;;;;;6.90;4.90;;;;;;;;;;4997960;28;20643;-83
2024/03/17 03:41:23;;;;;;;8.80;5.20;;;;;;;;;;4988062;28;20186;-83
2024/03/17 03:44:28;;;;;;;9.67;5.50;;;;;;;;;;4988422;28;20186;-83
2024/03/17 03:47:32;;;;;;;9.70;5.73;;;;;;;;;;5000379;28;20206;-83
2024/03/17 03:50:38;;;;;;;7.43;5.13;;;;;;;;;;5000435;28;20178;-84
2024/03/17 03:53:42;;;;;;;8.87;6.00;;;;;;;;;;5000441;28;20182;-83
2024/03/17 03:56:46;;;;;;;8.03;5.57;;;;;;;;;;4999781;28;20178;-83
2024/03/17 03:59:50;;;;;;;9.13;5.93;;;;;;;;;;4988215;28;20214;-84
2024/03/17 04:02:55;;;;;;;11.47;6.20;;;;;;;;;;4999945;28;20218;-83
2024/03/17 04:06:07;;;;;;;8.20;5.87;;;;;;;;;;4988048;28;20182;-83
2024/03/17 04:09:11;;;;;;;9.53;6.33;;;;;;;;;;4999946;28;20175;-83
2024/03/17 04:12:16;;;;;;;6.63;5.20;;;;;;;;;;4998964;28;20572;-84
2024/03/17 04:15:20;;;;;;;9.87;6.00;;;;;;;;;;4988282;28;20185;-83
2024/03/17 04:18:25;;;;;;;9.17;5.97;;;;;;;;;;4999631;28;20537;-83
2024/03/17 04:21:29;;;;;;;7.00;5.73;;;;;;;;;;4999474;28;20706;-83
2024/03/17 04:24:33;;;;;;;10.60;6.53;;;;;;;;;;4999355;28;20186;-83
2024/03/17 04:27:38;;;;;;;10.07;7.07;;;;;;;;;;4987475;28;20186;-84
2024/03/17 04:30:42;;;;;;;9.03;6.83;;;;;;;;;;4999486;28;20178;-83
2024/03/17 04:33:46;;;;;;;10.47;6.77;;;;;;;;;;4990201;28;20209;-84
2024/03/17 04:36:50;;;;;;;11.33;6.77;;;;;;;;;;4990827;28;20520;-83
2024/03/17 04:39:57;;;;;;;10.53;6.33;;;;;;;;;;4991284;28;20209;-83
2024/03/17 04:43:01;;;;;;;9.70;7.03;;;;;;;;;;4990305;28;20221;-83
2024/03/17 04:46:07;;;;;;;9.83;6.30;;;;;;;;;;4979922;28;20526;-84
2024/03/17 04:49:11;;;;;;;10.63;6.47;;;;;;;;;;4990963;28;20628;-84
2024/03/17 04:52:16;;;;;;;9.47;6.47;;;;;;;;;;4979629;28;20222;-83
2024/03/17 04:55:20;;;;;;;8.67;6.47;;;;;;;;;;4980002;28;20182;-84
2024/03/17 04:58:25;;;;;;;15.90;7.30;;;;;;;;;;4991115;28;20178;-83
2024/03/17 05:01:31;;;;;;;9.87;6.70;;;;;;;;;;4990673;28;20210;-83
2024/03/17 05:04:35;;;;;;;8.67;6.50;;;;;;;;;;4979468;28;20190;-83
2024/03/17 05:07:39;;;;;;;10.67;6.37;;;;;;;;;;4990551;28;20191;-84
2024/03/17 05:10:43;;;;;;;7.70;5.90;;;;;;;;;;4990237;28;20178;-84
2024/03/17 05:13:48;;;;;;;11.07;6.50;;;;;;;;;;4989977;28;20182;-84
2024/03/17 05:16:52;;;;;;;8.40;6.20;;;;;;;;;;4989860;28;20182;-84
2024/03/17 05:19:58;;;;;;;10.47;6.03;;;;;;;;;;4990115;28;20213;-84
2024/03/17 05:23:08;;;;;;;10.70;6.23;;;;;;;;;;4990113;28;20213;-83
2024/03/17 05:26:12;;;;;;;7.43;5.60;;;;;;;;;;4991249;28;20178;-83
2024/03/17 05:29:16;;;;;;;7.20;5.47;;;;;;;;;;4980155;28;20178;-83
2024/03/17 05:32:20;;;;;;;11.83;6.30;;;;;;;;;;5002224;28;20217;-83
2024/03/17 05:35:25;;;;;;;9.90;5.97;;;;;;;;;;4990736;28;20636;-83
2024/03/17 05:38:30;;;;;;;10.70;6.37;;;;;;;;;;5001231;28;20187;-83
2024/03/17 05:41:35;;;;;;;7.03;5.17;;;;;;;;;;4990483;28;20218;-83
2024/03/17 05:45:00;;;;;;;8.27;6.23;;;;;;;;;;5001860;28;20178;-84
2024/03/17 05:48:05;;;;;;;7.57;5.77;;;;;;;;;;4978275;28;20567;-83
2024/03/17 05:51:11;;;;;;;8.40;5.73;;;;;;;;;;4989369;28;20178;-83
2024/03/17 05:54:16;;;;;;;9.37;6.27;;;;;;;;;;5000808;28;20186;-83
2024/03/17 05:57:20;;;;;;;11.80;6.40;;;;;;;;;;4990067;28;20182;-83
2024/03/17 06:00:24;;;;;;;8.77;6.33;;;;;;;;;;4979261;28;20206;-84
2024/03/17 06:03:29;;;;;;;8.73;6.60;;;;;;;;;;4990495;28;20651;-83
2024/03/17 06:06:33;;;;;;;8.23;5.83;;;;;;;;;;5002309;28;20182;-83
2024/03/17 06:09:37;;;;;;;10.53;6.63;;;;;;;;;;4979140;28;20182;-84
2024/03/17 06:55:16;;;;;;;8.60;6.73;;;;;;;;;;5038032;28;20224;-84
2024/03/17 06:58:22;;;;;;;9.13;7.23;;;;;;;;;;5026998;28;20177;-85
2024/03/17 07:01:28;;;;;;;10.87;6.80;;;;;;;;;;5017288;28;20228;-84
2024/03/17 07:04:32;;;;;;;11.93;8.27;;;;;;;;;;5016795;28;20176;-84
2024/03/17 07:07:40;;;;;;;10.03;8.03;;;;;;;;;;5015879;28;20518;-84
2024/03/17 07:11:06;;;;;;;9.83;7.27;;;;;;;;;;5031231;28;20173;-86
2024/03/17 07:14:11;;;;;;;10.40;7.13;;;;;;;;;;5025075;28;20185;-86
2024/03/17 07:17:15;;;;;;;12.23;7.93;;;;;;;;;;5030981;28;20527;-83
2024/03/17 07:20:19;;;;;;;11.27;7.53;;;;;;;;;;5042984;28;20685;-84
2024/03/17 07:23:24;;;;;;;10.27;7.80;;;;;;;;;;5030515;28;20220;-84
2024/03/17 07:26:29;;;;;;;8.93;7.20;;;;;;;;;;5032049;28;20542;-83
2024/03/17 07:29:33;;;;;;;9.23;7.10;;;;;;;;;;5030354;28;20180;-83
2024/03/17 07:32:38;;;;;;;11.27;7.87;;;;;;;;;;5018975;28;20216;-82
2024/03/17 07:36:00;;;;;;;9.27;6.80;;;;;;;;;;5008455;28;20634;-83
2024/03/17 07:39:04;;;;;;;10.07;7.30;;;;;;;;;;5030873;28;20177;-83
2024/03/17 07:42:08;;;;;;;9.27;7.30;;;;;;;;;;5030267;28;20213;-83
2024/03/17 07:45:12;;;;;;;13.33;8.07;;;;;;;;;;5019440;28;20180;-84
2024/03/17 07:48:16;;;;;;;11.60;7.17;;;;;;;;;;5040452;28;20526;-83
2024/03/17 07:51:21;;;;;;;11.33;7.07;;;;;;;;;;5027201;28;20181;-84
2024/03/17 07:54:26;;;;;;;11.37;7.73;;;;;;;;;;5039315;28;20204;-83
2024/03/17 07:57:30;;;;;;;14.37;8.13;;;;;;;;;;5026860;28;20185;-82
2024/03/17 08:00:34;;;;;;;12.37;7.77;;;;;;;;;;5027104;28;20208;-83
2024/03/17 08:03:41;;;;;;;12.27;7.37;;;;;;;;;;5027112;28;20189;-83
2024/03/17 08:06:45;;;;;;;10.97;7.20;;;;;;;;;;5027278;28;20181;-83
2024/03/17 08:09:49;;;;;;;10.77;7.13;;;;;;;;;;5038809;28;20180;-82
2024/03/17 08:12:55;;;;;;;9.27;7.20;;;;;;;;;;5040420;28;20212;-83
2024/03/17 08:16:01;;;;;;;9.07;7.13;;;;;;;;;;5018299;28;20181;-83
2024/03/17 08:19:06;;;;;;;10.90;7.77;;;;;;;;;;5027197;28;20180;-83
2024/03/17 08:22:10;;;;;;;10.60;7.13;;;;;;;;;;5026448;28;20212;-83
2024/03/17 08:25:14;;;;;;;9.17;6.53;;;;;;;;;;5025825;28;20177;-81
2024/03/17 08:28:19;;;;;;;9.90;7.33;;;;;;;;;;5039804;28;20180;-84
2024/03/17 08:31:23;;;;;;;9.40;7.13;;;;;;;;;;5039823;28;20208;-82
2024/03/17 08:34:27;;;;;;;9.67;6.90;;;;;;;;;;5017230;28;20181;-82
2024/03/17 08:37:32;;;;;;;8.97;7.27;;;;;;;;;;5041762;28;20181;-82
2024/03/17 08:40:36;;;;;;;9.17;6.83;;;;;;;;;;5015726;28;20205;-83
2024/03/17 08:43:42;;;;;;;11.07;6.87;;;;;;;;;;5038990;28;20189;-82
2024/03/17 08:46:47;;;;;;;8.60;6.80;;;;;;;;;;5039430;28;20181;-83
2024/03/17 08:49:51;;;;;;;8.53;6.60;;;;;;;;;;5038871;28;20184;-81
2024/03/17 08:52:55;;;;;;;8.50;6.63;;;;;;;;;;5027822;28;20216;-82
2024/03/17 08:56:00;;;;;;;8.60;6.40;;;;;;;;;;5028010;28;20177;-83
2024/03/17 08:59:04;;;;;;;9.53;6.97;;;;;;;;;;5028069;28;20185;-83
2024/03/17 09:02:13;;;;;;;6.90;6.00;;;;;;;;;;5027954;28;20225;-83
2024/03/17 09:05:18;;;;;;;7.10;5.57;;;;;;;;;;5029106;28;20173;-82
2024/03/17 09:08:24;;;;;;;6.17;5.33;;;;;;;;;;5018034;28;20185;-83
2024/03/17 09:11:28;;;;;;;6.60;5.47;;;;;;;;;;5029627;28;20220;-84
2024/03/17 09:14:34;;;;;;;8.27;6.10;;;;;;;;;;5041263;28;20181;-83
2024/03/17 09:17:39;;;;;;;6.57;5.60;;;;;;;;;;5028308;28;20181;-84
2024/03/17 09:21:08;;;;;;;6.80;5.47;;;;;;;;;;5041330;28;20213;-84
2024/03/17 09:24:12;;;;;;;7.63;5.67;;;;;;;;;;5017340;28;20181;-83
2024/03/17 09:27:19;;;;;;;6.47;4.70;;;;;;;;;;5027607;28;20177;-83
2024/03/17 09:30:24;;;;;;;6.67;5.30;;;;;;;;;;5041194;28;20181;-83
2024/03/17 09:33:30;;;;;;;6.23;4.83;;;;;;;;;;5029956;28;20181;-82
2024/03/17 09:36:34;;;;;;;9.27;5.00;;;;;;;;;;5017520;28;20523;-82
2024/03/17 09:39:38;;;;;;;6.17;4.73;;;;;;;;;;5045127;28;20176;-82
2024/03/17 09:42:43;;;;;;;5.73;5.13;;;;;;;;;;5041146;28;20208;-82
2024/03/17 09:45:48;;;;;;;8.87;5.20;;;;;;;;;;5020403;28;20184;-84
2024/03/17 09:48:53;;;;;;;6.67;5.20;;;;;;;;;;5029677;28;20185;-82
2024/03/17 09:51:58;;;;;;;6.37;4.97;;;;;;;;;;5026738;28;20209;-84
2024/03/17 09:55:09;;;;;;;7.90;5.37;;;;;;;;;;5019913;28;20208;-82
2024/03/17 09:58:17;;;;;;;6.40;4.93;;;;;;;;;;5046682;28;20637;-83
2024/03/17 10:31:25;;;;;;;5.47;4.33;;;;;;;;;;5021389;28;20217;-84
2024/03/17 10:34:38;;;;;;;5.07;4.00;;;;;;;;;;5026753;28;20265;-83
2024/03/17 10:38:02;;;;;;;4.57;4.07;;;;;;;;;;5016163;28;20177;-83
2024/03/17 10:45:18;;;;;;;5.17;4.17;;;;;;;;;;5023957;28;20205;-83
2024/03/17 10:48:26;;;;;;;5.30;4.10;;;;;;;;;;5024292;28;20185;-83
2024/03/17 10:51:32;;;;;;;5.00;4.20;;;;;;;;;;5024663;28;20555;-81
2024/03/17 10:54:44;;;;;;;6.37;4.30;;;;;;;;;;5013975;28;20204;-83
2024/03/17 10:57:50;;;;;;;5.13;3.93;;;;;;;;;;5023946;28;20176;-83
2024/03/17 11:01:03;;;;;;;4.70;3.63;;;;;;;;;;5012308;28;20201;-84
2024/03/17 11:04:15;;;;;;;3.77;3.40;;;;;;;;;;5035975;28;20181;-84
2024/03/17 11:07:37;;;;;;;3.50;3.00;;;;;;;;;;5025600;28;20181;-84
2024/03/17 11:10:52;;;;;;;4.47;3.40;;;;;;;;;;5013341;28;20180;-83
2024/03/17 11:14:19;;;;;;;4.80;3.70;;;;;;;;;;5036019;28;20181;-83
2024/03/17 11:17:24;;;;;;;5.23;3.40;;;;;;;;;;5037000;28;20181;-83
2024/03/17 11:20:29;;;;;;;4.47;3.43;;;;;;;;;;5024020;28;20180;-83
2024/03/17 11:39:38;;;;;;;;;;;;;;;;;;;;;
2024/03/17 11:49:18;;;;;;;;;;;;;;;;;;;;;
2024/03/17 11:54:17;;;;;;;;;;;;;;;;;;;;;
2024/03/17 11:59:17;;;;;;;4.60;3.27;;;;;;;;;;5034492;28;20205;-82
2024/03/17 12:04:10;;;;;;;4.17;3.20;;;;;;;;;;5005700;28;20552;-82
2024/03/17 12:07:23;;;;;;;3.87;3.07;;;;;;;;;;5038568;28;20196;-82
2024/03/17 12:10:30;;;;;;;4.77;3.00;;;;;;;;;;5067439;28;20561;-81
2024/03/17 12:13:36;;;;;;;3.93;3.30;;;;;;;;;;5068629;28;20176;-81
2024/03/17 12:16:56;;;;;;;4.17;2.73;;;;;;;;;;5067540;28;20180;-83
2024/03/17 12:20:00;;;;;;;4.80;3.30;;;;;;;;;;5067017;28;20181;-84
2024/03/17 12:23:06;;;;;;;3.33;2.90;;;;;;;;;;5066038;28;20227;-82
2024/03/17 12:26:16;;;;;;;4.33;3.20;;;;;;;;;;5069204;28;20184;-83
2024/03/17 12:29:40;;;;;;;4.67;2.87;;;;;;;;;;5066131;28;20184;-83
2024/03/17 12:32:46;;;;;;;3.20;2.63;;;;;;;;;;5066138;28;20210;-83
2024/03/17 12:35:52;;;;;;;4.23;3.20;;;;;;;;;;5064829;28;20188;-85
2024/03/17 12:39:11;;;;;;;3.97;2.87;;;;;;;;;;5065731;28;20181;-82
2024/03/17 12:42:26;;;;;;;5.07;3.00;;;;;;;;;;5064640;28;20228;-83
2024/03/17 12:45:31;;;;;;;3.63;2.47;;;;;;;;;;5064143;28;20204;-83
2024/03/17 12:48:37;;;;;;;4.10;2.67;;;;;;;;;;5065856;28;20180;-83
2024/03/17 12:51:41;;;;;;;4.27;3.03;;;;;;;;;;5064064;28;20712;-83
2024/03/17 13:01:51;;;;;;;6.57;2.90;;;;;;;;;;5062216;28;20224;-83
2024/03/17 13:05:16;;;;;;;3.43;2.90;;;;;;;;;;5062996;28;20180;-83
2024/03/17 13:08:20;;;;;;;4.53;2.63;;;;;;;;;;5061730;28;20180;-82
2024/03/17 13:11:25;;;;;;;5.53;2.77;;;;;;;;;;5062852;28;20212;-85
2024/03/17 13:14:29;;;;;;;3.43;2.50;;;;;;;;;;5061393;28;20176;-83
2024/03/17 13:17:33;;;;;;;5.30;2.80;;;;;;;;;;5061193;28;20180;-83
2024/03/17 13:20:38;;;;;;;4.17;3.33;;;;;;;;;;5061738;28;20180;-85
2024/03/17 13:23:42;;;;;;;5.13;3.40;;;;;;;;;;5060678;28;20168;-84
2024/03/17 13:26:47;;;;;;;5.27;3.40;;;;;;;;;;5060451;28;20521;-85
2024/03/17 13:29:53;;;;;;;5.07;2.80;;;;;;;;;;5061355;28;20180;-84
2024/03/17 13:33:00;;;;;;;3.57;3.17;;;;;;;;;;5063398;28;20208;-83
2024/03/17 13:36:04;;;;;;;4.27;2.87;;;;;;;;;;5063618;28;20510;-83
2024/03/17 13:39:09;;;;;;;5.00;2.60;;;;;;;;;;5062847;28;20180;-83
2024/03/17 13:42:14;;;;;;;3.97;3.00;;;;;;;;;;5061950;28;20215;-83
2024/03/17 13:45:21;;;;;;;3.93;2.80;;;;;;;;;;5062115;28;20576;-83
2024/03/17 13:48:26;;;;;;;5.87;2.93;;;;;;;;;;5063347;28;20183;-83
2024/03/17 13:51:30;;;;;;;3.43;2.40;;;;;;;;;;5050310;28;20208;-83
2024/03/17 13:54:34;;;;;;;3.60;2.53;;;;;;;;;;5061070;28;20176;-83
2024/03/17 13:57:39;;;;;;;3.93;2.60;;;;;;;;;;5062385;28;20184;-83
2024/03/17 14:00:43;;;;;;;4.00;2.40;;;;;;;;;;5061217;28;20176;-83
2024/03/17 14:03:47;;;;;;;4.67;2.63;;;;;;;;;;5061120;28;20164;-83
2024/03/17 14:06:51;;;;;;;7.27;3.20;;;;;;;;;;5062981;28;20629;-83
2024/03/17 14:09:56;;;;;;;3.70;3.07;;;;;;;;;;5060199;28;20184;-83
2024/03/17 14:13:00;;;;;;;4.50;3.23;;;;;;;;;;5061205;28;20216;-84
2024/03/17 14:16:04;;;;;;;9.43;3.40;;;;;;;;;;5061572;28;20180;-84
2024/03/17 14:19:08;;;;;;;4.37;3.33;;;;;;;;;;5059105;28;20184;-83
2024/03/17 14:22:13;;;;;;;5.20;2.90;;;;;;;;;;5059128;28;20215;-83
2024/03/17 14:25:18;;;;;;;5.60;2.73;;;;;;;;;;5060569;28;20189;-83
2024/03/17 14:28:22;;;;;;;5.30;3.00;;;;;;;;;;5058473;28;20184;-83
2024/03/17 14:31:37;;;;;;;6.40;2.93;;;;;;;;;;5061509;28;20219;-84
2024/03/17 14:34:41;;;;;;;4.00;2.47;;;;;;;;;;5057402;28;20203;-85
2024/03/17 14:37:48;;;;;;;3.93;2.60;;;;;;;;;;5057183;28;20183;-85
2024/03/17 14:40:53;;;;;;;5.20;3.03;;;;;;;;;;5058651;28;20620;-84
2024/03/17 14:44:03;;;;;;;3.67;2.70;;;;;;;;;;5056799;28;20192;-84
2024/03/17 14:47:08;;;;;;;4.57;2.53;;;;;;;;;;5057220;28;20192;-84
2024/03/17 14:50:12;;;;;;;3.67;3.03;;;;;;;;;;5057924;28;20180;-84
2024/03/17 14:53:16;;;;;;;3.80;3.20;;;;;;;;;;5047182;28;20211;-84
2024/03/17 14:56:21;;;;;;;4.00;2.87;;;;;;;;;;5061390;28;20187;-83
2024/03/17 14:59:25;;;;;;;4.83;3.73;;;;;;;;;;5059954;28;20184;-83
2024/03/17 15:02:29;;;;;;;3.33;2.97;;;;;;;;;;5059487;28;20223;-83
2024/03/17 15:05:33;;;;;;;4.70;2.80;;;;;;;;;;5062358;28;20188;-83
2024/03/17 15:08:38;;;;;;;5.30;2.60;;;;;;;;;;5059669;28;20180;-83
2024/03/17 15:11:42;;;;;;;3.37;2.87;;;;;;;;;;5060668;28;20700;-83
2024/03/17 15:14:46;;;;;;;7.93;5.87;;;;;;;;;;5049742;28;20181;-83
2024/03/17 15:17:52;;;;;;;16.83;10.20;;;;;;;;;;5059577;28;20176;-82
2024/03/17 15:20:56;;;;;;;9.63;7.43;;;;;;;;;;5058722;28;20183;-82
2024/03/17 15:24:02;;;;;;;8.57;6.87;;;;;;;;;;5060191;28;20200;-82
2024/03/17 15:27:06;;;;;;;4.83;3.07;;;;;;;;;;5058609;28;20188;-82
2024/03/17 15:30:18;;;;;;;4.10;2.73;;;;;;;;;;5058670;28;20180;-81
2024/03/17 15:33:24;;;;;;;3.47;2.70;;;;;;;;;;5057788;28;20565;-83
2024/03/17 15:36:29;;;;;;;3.17;2.30;;;;;;;;;;5061838;28;20180;-82
2024/03/17 15:39:34;;;;;;;5.53;2.93;;;;;;;;;;5049485;28;20172;-83
2024/03/17 15:42:38;;;;;;;4.67;3.60;;;;;;;;;;5061067;28;20223;-82
2024/03/17 15:45:42;;;;;;;5.30;3.63;;;;;;;;;;5063708;28;20679;-82
2024/03/17 15:48:47;;;;;;;8.00;4.23;;;;;;;;;;5063689;28;20534;-83
2024/03/17 15:51:50;;;;;;;3.50;2.60;;;;;;;;;;5061991;28;20216;-82
2024/03/17 15:54:59;;;;;;;4.23;3.20;;;;;;;;;;5061702;28;20203;-83
2024/03/17 15:58:04;;;;;;;6.17;3.20;;;;;;;;;;5060797;28;20180;-82
2024/03/17 16:01:09;;;;;;;5.30;2.87;;;;;;;;;;5062568;28;20637;-83
2024/03/17 16:04:14;;;;;;;6.63;2.83;;;;;;;;;;5059779;28;20673;-82
2024/03/17 16:07:19;;;;;;;3.90;2.73;;;;;;;;;;5059931;28;20184;-82
2024/03/17 16:10:27;;;;;;;3.77;2.80;;;;;;;;;;5048184;28;20633;-82
2024/03/17 16:13:31;;;;;;;3.20;2.47;;;;;;;;;;5060432;28;20173;-82
2024/03/17 16:16:39;;;;;;;5.23;2.73;;;;;;;;;;5059228;28;20184;-82
2024/03/17 16:19:46;;;;;;;4.67;2.40;;;;;;;;;;5060762;28;20202;-82
2024/03/17 16:22:53;;;;;;;6.47;2.53;;;;;;;;;;5060122;28;20224;-84
2024/03/17 16:26:01;;;;;;;3.90;2.83;;;;;;;;;;5059213;28;20188;-84
2024/03/17 16:29:05;;;;;;;4.20;2.63;;;;;;;;;;5058925;28;20184;-83
2024/03/17 16:32:11;;;;;;;5.97;2.50;;;;;;;;;;5058874;28;20692;-83
2024/03/17 16:35:15;;;;;;;6.07;2.90;;;;;;;;;;5059871;28;20181;-84
2024/03/17 16:38:19;;;;;;;5.80;3.33;;;;;;;;;;5058935;28;20180;-84
2024/03/17 16:41:23;;;;;;;5.30;3.00;;;;;;;;;;5070470;28;20541;-85
2024/03/17 16:44:44;;;;;;;3.70;2.60;;;;;;;;;;5057998;28;20200;-84
2024/03/17 16:47:48;;;;;;;8.20;3.10;;;;;;;;;;5060830;28;20184;-83
2024/03/17 16:50:52;;;;;;;5.23;2.57;;;;;;;;;;5060928;28;20292;-84
2024/03/17 16:53:58;;;;;;;4.10;2.80;;;;;;;;;;5058878;28;20180;-85
2024/03/17 16:57:04;;;;;;;4.30;2.83;;;;;;;;;;5060048;28;20542;-85
2024/03/17 17:00:14;;;;;;;5.20;2.80;;;;;;;;;;5059987;28;20204;-84
2024/03/17 17:03:18;;;;;;;5.23;2.37;;;;;;;;;;5060441;28;20238;-84
2024/03/17 17:06:23;;;;;;;4.03;2.90;;;;;;;;;;5060689;28;20522;-84
2024/03/17 17:09:29;;;;;;;5.67;2.87;;;;;;;;;;5062207;28;20180;-85
2024/03/17 17:12:34;;;;;;;5.53;2.90;;;;;;;;;;5060398;28;20215;-84
2024/03/17 17:15:38;;;;;;;3.87;2.80;;;;;;;;;;5049466;28;20188;-85
2024/03/17 17:19:00;;;;;;;5.87;2.77;;;;;;;;;;5060561;28;20641;-85
2024/03/17 17:22:06;;;;;;;4.43;1.90;;;;;;;;;;5058405;28;20207;-85
2024/03/17 17:25:16;;;;;;;2.17;1.70;;;;;;;;;;5049410;28;20164;-85
2024/03/17 17:28:19;;;;;;;2.63;1.97;;;;;;;;;;5059218;28;20180;-85
2024/03/17 17:31:25;;;;;;;2.70;2.00;;;;;;;;;;5046062;28;20211;-85
2024/03/17 17:34:30;;;;;;;3.10;1.93;;;;;;;;;;5058229;28;20176;-85
2024/03/17 17:37:34;;;;;;;2.67;1.70;;;;;;;;;;5046038;28;20184;-85
2024/03/17 17:40:38;;;;;;;2.53;1.83;;;;;;;;;;5057781;28;20176;-85
2024/03/17 17:43:51;;;;;;;3.23;1.80;;;;;;;;;;5057082;28;20228;-85
2024/03/17 17:46:55;;;;;;;4.20;1.87;;;;;;;;;;5046054;28;20188;-86
2024/03/17 17:49:59;;;;;;;4.03;2.00;;;;;;;;;;5058534;28;20180;-83
2024/03/17 17:53:04;;;;;;;3.30;2.23;;;;;;;;;;5045217;28;20211;-84
2024/03/17 17:56:14;;;;;;;2.90;2.27;;;;;;;;;;5057512;28;20180;-85
2024/03/17 17:59:19;;;;;;;3.80;2.00;;;;;;;;;;5045653;28;20180;-85
2024/03/17 18:02:23;;;;;;;2.20;2.00;;;;;;;;;;5058856;28;20216;-85
2024/03/17 18:05:28;;;;;;;3.47;1.70;;;;;;;;;;5058420;28;20168;-85
2024/03/17 18:08:32;;;;;;;4.30;2.17;;;;;;;;;;5057943;28;20184;-84
2024/03/17 18:11:37;;;;;;;2.30;2.00;;;;;;;;;;5057815;28;20220;-83
2024/03/17 18:14:41;;;;;;;4.30;1.90;;;;;;;;;;5057283;28;20184;-83
2024/03/17 18:17:47;;;;;;;4.40;2.70;;;;;;;;;;5063347;28;20181;-82
2024/03/17 18:21:01;;;;;;;3.50;2.67;;;;;;;;;;5048372;28;20168;-83
2024/03/17 18:24:05;;;;;;;3.63;2.40;;;;;;;;;;5050274;28;20208;-83
2024/03/17 18:27:11;;;;;;;5.73;2.37;;;;;;;;;;5039007;28;20199;-82
2024/03/17 18:30:15;;;;;;;5.37;2.37;;;;;;;;;;5051540;28;20180;-83
2024/03/17 18:33:20;;;;;;;3.23;2.10;;;;;;;;;;5050682;28;20697;-82
2024/03/17 18:36:24;;;;;;;3.70;2.57;;;;;;;;;;5038044;28;20185;-81
2024/03/17 18:39:29;;;;;;;2.77;2.40;;;;;;;;;;5050024;28;20177;-83
2024/03/17 18:42:34;;;;;;;5.00;2.30;;;;;;;;;;5049431;28;20216;-84
2024/03/17 18:45:39;;;;;;;6.13;2.40;;;;;;;;;;5037309;28;20200;-81
2024/03/17 18:48:44;;;;;;;4.70;2.63;;;;;;;;;;5049228;28;20181;-85
2024/03/17 18:51:48;;;;;;;3.47;2.27;;;;;;;;;;5050510;28;20212;-84
2024/03/17 18:54:52;;;;;;;4.23;2.20;;;;;;;;;;5037250;28;20626;-85
2024/03/17 18:57:57;;;;;;;3.23;2.93;;;;;;;;;;5036772;28;20181;-83
2024/03/17 19:01:03;;;;;;;6.57;3.43;;;;;;;;;;5060232;28;20184;-83
2024/03/17 19:04:07;;;;;;;9.13;3.90;;;;;;;;;;5037774;28;20205;-84
2024/03/17 19:07:11;;;;;;;8.10;3.40;;;;;;;;;;5034956;28;20180;-83
2024/03/17 19:10:18;;;;;;;7.50;3.60;;;;;;;;;;5039443;28;20176;-83
2024/03/17 19:13:23;;;;;;;7.10;3.53;;;;;;;;;;5050115;28;20208;-85
2024/03/17 19:16:28;;;;;;;9.03;2.97;;;;;;;;;;5050686;28;20177;-85
2024/03/17 19:19:32;;;;;;;7.17;3.10;;;;;;;;;;5050349;28;20185;-85
2024/03/17 19:22:40;;;;;;;3.83;2.73;;;;;;;;;;5027560;28;20220;-84
2024/03/17 19:25:44;;;;;;;5.43;2.97;;;;;;;;;;5049987;28;20590;-85
2024/03/17 19:28:54;;;;;;;4.93;2.80;;;;;;;;;;5054983;28;20617;-84
2024/03/17 19:31:58;;;;;;;4.47;3.40;;;;;;;;;;5056101;28;20212;-82
2024/03/17 19:35:03;;;;;;;5.07;2.80;;;;;;;;;;5053881;28;20181;-82
2024/03/17 19:38:08;;;;;;;3.83;2.97;;;;;;;;;;5051629;28;20180;-81
2024/03/17 19:41:15;;;;;;;3.67;2.80;;;;;;;;;;5066249;28;20169;-83
2024/03/17 19:44:19;;;;;;;4.30;2.67;;;;;;;;;;5052757;28;20224;-84
2024/03/17 19:47:24;;;;;;;4.30;3.00;;;;;;;;;;5043209;28;20176;-84
2024/03/17 19:50:29;;;;;;;5.20;2.80;;;;;;;;;;5042511;28;20177;-85
2024/03/17 19:53:34;;;;;;;6.50;3.30;;;;;;;;;;5052823;28;20169;-84
2024/03/17 19:56:40;;;;;;;5.47;2.90;;;;;;;;;;5053284;28;20639;-84
2024/03/17 19:59:45;;;;;;;7.60;3.00;;;;;;;;;;5053872;28;20177;-85
2024/03/17 20:02:53;;;;;;;5.47;3.00;;;;;;;;;;5054076;28;20208;-84
2024/03/17 20:05:58;;;;;;;5.53;3.10;;;;;;;;;;5051677;28;20174;-84
2024/03/17 20:09:03;;;;;;;5.93;3.00;;;;;;;;;;5053615;28;20619;-84
2024/03/17 20:12:08;;;;;;;5.83;3.10;;;;;;;;;;5065358;28;20217;-85
2024/03/17 20:15:12;;;;;;;6.77;3.10;;;;;;;;;;5041331;28;20184;-84
2024/03/17 20:18:16;;;;;;;6.33;3.70;;;;;;;;;;5052872;28;20185;-84
2024/03/17 20:21:21;;;;;;;6.63;3.67;;;;;;;;;;5051530;28;20641;-83
2024/03/17 20:24:26;;;;;;;6.40;4.00;;;;;;;;;;5040947;28;20205;-84
2024/03/17 20:27:30;;;;;;;4.40;3.30;;;;;;;;;;5052039;28;20176;-84